Etusivu
METAR-TAF:

METAR-TAF

Lentoasemat :

Bacău, Romania

Leveyspiiri: 46-35N, Pituuspiiri: 026-58E, korkeus merenpinnasta: 184 m

Tämänhetkinen sää

Tämä raportti tehtiin 38 minuuttia sitten, kello 03.30 UTC
Tuuli 7 kn etelästä/kaakosta
Lämpötila 11°C
Kosteus 76%
Ilmanpaine 1007 hPa
Näkyvyys 10 km tai enemmän
ei pilviä alle 1500 m:ssä eikä cumulonimbus-pilviä

METAR: LRBC 310330Z 15007KT CAVOK 11/07 Q1007

Aika: 07:08 (04:08 UTC)

Sääennuste

Tämä raportti tehtiin 2 tuntia ja 8 minuuttia sitten, kello 02.00 UTC
Ennuste voimassa 31. päivästä klo 03 UTC - 31. päivään klo 12 UTC
Tuuli 8 kn etelästä
Näkyvyys 10 km tai enemmän
ei pilviä alle 1500 m:ssä eikä cumulonimbus-pilviä

TAF: LRBC 310200Z 3103/3112 19008KT CAVOK

Säähavainnot ja -ennusteet yli 4000 lentoasemalta (METAR- ja TAF-raportit).

Käytössä olevat sääasemat on merkitty karttaan keltaisilla ja punaisilla pisteillä.

Aseta hiiri pisteen päälle nähdäksesi sääaseman nimen.

Klikkaa sitten nähdäksesi säähavainnot ja -ennusteet.

Kartan vaihtaminen: klikkaa mustalla rastilla varustettuja vihreitä pisteitä, niin voit zoomata sisään; viivalla varustettua vihreää pistettä, niin voit zoomata ulos tai vihreitä nuolia, niin pääset viereisille kartoille.


METAR-TAF: